createdAt,value
2022-08-24T00:02:01.376Z,6.55
2022-08-24T00:04:31.976Z,4.38
2022-08-24T00:07:02.231Z,6.68
2022-08-24T00:09:31.715Z,8.93
2022-08-24T00:12:00.388Z,5.33
2022-08-24T00:14:27.962Z,5.20
2022-08-24T00:16:56.061Z,9.57
2022-08-24T00:19:25.122Z,4.13
2022-08-24T00:21:52.782Z,11.13
2022-08-24T00:24:21.622Z,4.20
2022-08-24T00:26:49.792Z,3.28
2022-08-24T00:29:19.068Z,4.20
2022-08-24T00:31:47.332Z,5.43
2022-08-24T00:34:17.806Z,5.90
2022-08-24T00:36:46.115Z,4.40
2022-08-24T00:39:14.391Z,6.10
2022-08-24T00:41:44.914Z,10.00
2022-08-24T00:44:14.415Z,4.65
2022-08-24T00:46:53.837Z,4.28
2022-08-24T00:49:30.106Z,6.90
2022-08-24T00:52:15.401Z,6.97
2022-08-24T00:54:49.013Z,8.57
2022-08-24T00:57:20.348Z,7.20
2022-08-24T00:59:55.774Z,6.90
2022-08-24T01:02:29.889Z,8.55
2022-08-24T01:05:04.384Z,6.20
2022-08-24T01:07:33.723Z,6.03
2022-08-24T01:10:06.062Z,5.70
2022-08-24T01:12:37.052Z,3.33
2022-08-24T01:15:07.942Z,3.63
2022-08-24T01:17:54.872Z,3.50
2022-08-24T01:20:26.481Z,3.80
2022-08-24T01:23:19.714Z,5.43
2022-08-24T01:25:47.287Z,3.47
2022-08-24T01:28:27.183Z,6.05
2022-08-24T01:30:57.094Z,3.00
2022-08-24T01:33:28.282Z,4.88
2022-08-24T01:36:28.234Z,7.30
2022-08-24T01:39:00.723Z,24.08
2022-08-24T01:41:29.455Z,187.10
2022-08-24T01:43:59.511Z,470.08
2022-08-24T01:46:29.559Z,184.52
2022-08-24T01:48:58.652Z,220.73
2022-08-24T01:51:30.737Z,153.45
2022-08-24T01:54:03.527Z,156.40
2022-08-24T01:56:33.406Z,74.38
2022-08-24T01:59:02.117Z,89.65
2022-08-24T02:01:34.806Z,85.13
2022-08-24T02:04:05.657Z,67.57
2022-08-24T02:06:37.975Z,135.50
2022-08-24T02:09:08.341Z,84.10
2022-08-24T02:11:37.940Z,224.93
2022-08-24T02:14:06.643Z,192.88
2022-08-24T02:16:34.507Z,191.45
2022-08-24T02:19:02.564Z,163.07
2022-08-24T02:21:30.576Z,139.18
2022-08-24T02:23:58.136Z,212.88
2022-08-24T02:26:28.422Z,195.27
2022-08-24T02:29:03.557Z,233.63
2022-08-24T02:31:33.294Z,158.60
2022-08-24T02:34:01.741Z,131.73
2022-08-24T02:36:31.254Z,132.00
2022-08-24T02:39:00.584Z,133.47
2022-08-24T02:41:28.310Z,51.63
2022-08-24T02:43:57.407Z,50.70
2022-08-24T02:46:28.544Z,325.35
2022-08-24T02:49:11.155Z,292.85
2022-08-24T02:51:45.229Z,235.93
2022-08-24T02:54:18.422Z,157.15
2022-08-24T02:56:48.608Z,125.22
2022-08-24T02:59:17.877Z,128.45
2022-08-24T03:01:47.202Z,94.70
2022-08-24T03:04:18.870Z,116.53
2022-08-24T03:06:47.277Z,77.70
2022-08-24T03:09:14.832Z,64.90
2022-08-24T03:11:45.467Z,99.28
2022-08-24T03:14:14.606Z,91.75
2022-08-24T03:16:42.465Z,59.10
2022-08-24T03:19:10.465Z,82.68
2022-08-24T03:21:38.946Z,51.45
2022-08-24T03:24:06.670Z,123.17
2022-08-24T03:26:35.054Z,62.40
2022-08-24T03:29:03.108Z,31.83
2022-08-24T03:31:33.896Z,38.90
2022-08-24T03:34:02.873Z,173.05
2022-08-24T03:36:30.621Z,166.18
2022-08-24T03:38:59.180Z,232.07
2022-08-24T03:41:27.417Z,160.43
2022-08-24T03:43:56.881Z,149.63
2022-08-24T03:46:28.894Z,120.72
2022-08-24T03:48:58.366Z,119.45
2022-08-24T03:51:28.621Z,108.18
2022-08-24T03:53:58.670Z,159.95
2022-08-24T03:56:29.292Z,112.22
2022-08-24T03:58:57.842Z,100.97
2022-08-24T04:01:28.783Z,79.15
2022-08-24T04:03:56.956Z,136.73
2022-08-24T04:06:30.347Z,153.88
2022-08-24T04:08:59.081Z,192.43
2022-08-24T04:11:28.846Z,145.70
2022-08-24T04:13:58.651Z,158.48
2022-08-24T04:16:28.343Z,127.57
2022-08-24T04:19:20.428Z,104.97
2022-08-24T04:21:48.896Z,97.18
2022-08-24T04:24:20.684Z,80.60
2022-08-24T04:26:48.383Z,273.23
2022-08-24T04:29:18.721Z,173.02
2022-08-24T04:31:51.826Z,142.13
2022-08-24T04:34:19.926Z,105.20
2022-08-24T04:36:48.817Z,125.28
2022-08-24T04:39:17.375Z,74.60
2022-08-24T04:41:53.500Z,66.77
2022-08-24T04:44:22.991Z,89.53
2022-08-24T04:46:50.852Z,61.83
2022-08-24T04:49:19.318Z,118.22
2022-08-24T04:51:46.812Z,257.38
2022-08-24T04:54:16.787Z,176.00
2022-08-24T04:56:49.723Z,148.95
2022-08-24T04:59:17.258Z,106.13
2022-08-24T05:01:45.377Z,105.45
2022-08-24T05:04:14.514Z,79.50
2022-08-24T05:06:42.910Z,64.82
2022-08-24T05:09:10.661Z,63.60
2022-08-24T05:11:42.373Z,60.05
2022-08-24T05:14:20.874Z,83.25
2022-08-24T05:16:52.970Z,167.02
2022-08-24T05:19:23.647Z,87.57
2022-08-24T05:21:51.702Z,69.88
2022-08-24T05:24:19.999Z,54.50
2022-08-24T05:26:48.080Z,40.35
2022-08-24T05:29:19.267Z,43.35
2022-08-24T05:31:50.215Z,51.30
2022-08-24T05:34:18.704Z,34.65
2022-08-24T05:36:47.355Z,29.88
2022-08-24T05:39:39.199Z,22.67
2022-08-24T05:42:09.608Z,29.65
2022-08-24T05:44:44.188Z,21.55
2022-08-24T05:47:12.355Z,24.38
2022-08-24T05:49:41.661Z,36.67
2022-08-24T05:52:11.757Z,24.13
2022-08-24T05:54:40.953Z,24.65
2022-08-24T05:57:11.504Z,19.20
2022-08-24T06:00:00.774Z,31.67
2022-08-24T06:02:29.492Z,18.60
2022-08-24T06:04:58.539Z,14.50
2022-08-24T06:07:27.055Z,43.58
2022-08-24T06:10:09.878Z,43.15
2022-08-24T06:12:46.794Z,33.65
2022-08-24T06:15:14.776Z,55.72
2022-08-24T06:17:42.841Z,41.75
2022-08-24T06:20:10.877Z,46.22
2022-08-24T06:22:38.919Z,26.05
2022-08-24T06:25:25.851Z,42.67
2022-08-24T06:27:54.101Z,61.30
2022-08-24T06:30:22.239Z,41.70
2022-08-24T06:33:05.341Z,56.05
2022-08-24T06:35:46.849Z,48.50
2022-08-24T06:38:14.972Z,51.80
2022-08-24T06:40:46.453Z,127.00
2022-08-24T06:43:14.967Z,88.00
2022-08-24T06:45:53.272Z,44.63
2022-08-24T06:48:24.860Z,28.08
2022-08-24T06:50:54.477Z,48.97
2022-08-24T06:53:22.244Z,45.60
2022-08-24T06:55:58.718Z,29.13
2022-08-24T06:58:29.056Z,44.28
2022-08-24T07:00:57.644Z,28.55
2022-08-24T07:03:25.874Z,11.10
2022-08-24T07:06:02.678Z,24.95
2022-08-24T07:08:56.955Z,64.85
2022-08-24T07:11:25.580Z,25.77
2022-08-24T07:13:54.602Z,43.72
2022-08-24T07:16:22.923Z,23.70
2022-08-24T07:18:54.106Z,70.50
2022-08-24T07:21:23.502Z,53.67
2022-08-24T07:23:57.941Z,63.80
2022-08-24T07:26:28.729Z,31.45
2022-08-24T07:29:06.883Z,85.03
2022-08-24T07:31:41.374Z,61.28
2022-08-24T07:34:15.810Z,24.48
2022-08-24T07:36:45.426Z,7.70
2022-08-24T07:39:14.113Z,9.48
2022-08-24T07:42:10.926Z,48.22
2022-08-24T07:44:32.771Z,7.30
2022-08-24T07:47:15.124Z,7.20
2022-08-24T07:49:49.556Z,5.60
2022-08-24T07:52:17.293Z,4.63
2022-08-24T07:54:46.967Z,9.43
2022-08-24T07:57:15.325Z,24.15
2022-08-24T07:59:43.273Z,7.22
2022-08-24T08:02:11.713Z,91.78
2022-08-24T08:04:42.412Z,19.80
2022-08-24T08:07:11.752Z,5.00
2022-08-24T08:09:39.868Z,3.75
2022-08-24T08:12:10.357Z,2.83
2022-08-24T08:14:46.070Z,5.07
2022-08-24T08:17:15.007Z,2.93
2022-08-24T08:19:43.902Z,3.95
2022-08-24T08:22:31.999Z,5.57
2022-08-24T08:25:19.294Z,2.50
2022-08-24T08:27:47.491Z,1.90
2022-08-24T08:30:15.920Z,4.93
2022-08-24T08:32:44.956Z,3.90
2022-08-24T08:35:14.603Z,4.53
2022-08-24T08:37:43.440Z,1.98
2022-08-24T08:40:27.322Z,3.20
2022-08-24T08:42:58.101Z,5.38
2022-08-24T08:45:47.567Z,2.15
2022-08-24T08:49:41.110Z,3.60
2022-08-24T08:52:58.321Z,4.60
2022-08-24T08:55:33.828Z,3.73
2022-08-24T08:58:14.653Z,2.63
2022-08-24T09:00:56.184Z,4.65
2022-08-24T09:03:32.805Z,3.10
2022-08-24T09:06:19.321Z,2.15
2022-08-24T09:08:59.166Z,1.92
2022-08-24T09:11:41.701Z,1.73
2022-08-24T09:14:15.779Z,4.38
2022-08-24T09:17:13.083Z,4.32
2022-08-24T09:20:05.917Z,4.07
2022-08-24T09:22:40.933Z,2.75
2022-08-24T09:25:26.368Z,4.57
2022-08-24T09:28:36.001Z,3.33
2022-08-24T09:31:23.066Z,3.70
2022-08-24T09:34:09.744Z,2.88
2022-08-24T09:36:52.566Z,3.50
2022-08-24T09:39:42.331Z,3.63
2022-08-24T09:42:25.798Z,2.58
2022-08-24T09:45:12.189Z,4.45
2022-08-24T09:48:21.264Z,2.65
2022-08-24T09:51:20.085Z,6.18
2022-08-24T09:54:00.321Z,2.35
2022-08-24T09:57:11.753Z,4.97
2022-08-24T10:00:07.545Z,2.65
2022-08-24T10:02:58.790Z,4.00
2022-08-24T10:05:26.751Z,1.33
2022-08-24T10:08:14.506Z,6.13
2022-08-24T10:11:04.304Z,4.65
2022-08-24T10:13:42.716Z,4.18
2022-08-24T10:16:35.157Z,2.92
2022-08-24T10:19:24.984Z,2.70
2022-08-24T10:21:52.802Z,1.10
2022-08-24T10:24:48.058Z,5.22
2022-08-24T10:27:40.428Z,2.17
2022-08-24T10:30:23.563Z,3.90
2022-08-24T10:33:14.597Z,2.63
2022-08-24T10:36:08.290Z,3.70
2022-08-24T10:39:07.067Z,4.03
2022-08-24T10:41:53.452Z,2.85
2022-08-24T10:44:40.837Z,4.30
2022-08-24T10:47:22.337Z,3.15
2022-08-24T10:50:22.043Z,2.25
2022-08-24T10:53:06.464Z,2.90
2022-08-24T10:55:35.766Z,2.20
2022-08-24T10:58:25.181Z,3.80
2022-08-24T11:00:52.985Z,1.92
2022-08-24T11:03:28.382Z,2.40
2022-08-24T11:05:57.353Z,3.10
2022-08-24T11:08:33.790Z,3.10
2022-08-24T11:11:12.785Z,2.72
2022-08-24T11:14:00.226Z,2.63
2022-08-24T11:16:43.194Z,3.08
2022-08-24T11:19:33.658Z,3.53
2022-08-24T11:22:06.158Z,3.38
2022-08-24T11:24:43.272Z,5.22
2022-08-24T11:27:16.716Z,3.85
2022-08-24T11:29:50.808Z,2.72
2022-08-24T11:32:51.295Z,2.47
2022-08-24T11:35:45.096Z,2.47
2022-08-24T11:38:22.915Z,4.43
2022-08-24T11:40:55.993Z,3.17
2022-08-24T11:43:38.494Z,3.50
2022-08-24T11:46:23.925Z,2.60
2022-08-24T11:49:20.780Z,3.42
2022-08-24T11:51:58.117Z,2.53
2022-08-24T11:54:31.205Z,5.05
2022-08-24T11:57:10.771Z,2.70
2022-08-24T11:59:54.666Z,4.53
2022-08-24T12:02:45.845Z,3.23
2022-08-24T12:05:28.682Z,4.38
2022-08-24T12:08:26.933Z,4.75
2022-08-24T12:11:10.391Z,2.47
2022-08-24T12:13:38.404Z,5.37
2022-08-24T12:16:34.025Z,4.25
2022-08-24T12:19:16.701Z,5.40
2022-08-24T12:21:50.155Z,2.63
2022-08-24T12:24:46.593Z,4.47
2022-08-24T12:27:22.640Z,2.60
2022-08-24T12:30:05.564Z,4.57
2022-08-24T12:32:42.447Z,3.97
2022-08-24T12:35:18.736Z,4.50
2022-08-24T12:37:57.975Z,2.53
2022-08-24T12:40:43.141Z,2.92
2022-08-24T12:43:27.426Z,2.25
2022-08-24T12:46:00.100Z,2.47
2022-08-24T12:48:39.505Z,7.90
2022-08-24T12:51:16.699Z,2.28
2022-08-24T12:54:24.917Z,3.70
2022-08-24T12:56:56.309Z,4.82
2022-08-24T12:59:52.839Z,4.40
2022-08-24T13:02:20.694Z,3.65
2022-08-24T13:04:51.328Z,4.68
2022-08-24T13:07:18.795Z,3.15
2022-08-24T13:09:52.398Z,2.65
2022-08-24T13:12:38.347Z,3.33
2022-08-24T13:15:24.002Z,2.38
2022-08-24T13:18:02.612Z,2.97
2022-08-24T13:20:37.803Z,2.47
2022-08-24T13:23:12.965Z,2.42
2022-08-24T13:25:56.040Z,4.17
2022-08-24T13:28:24.997Z,3.72
2022-08-24T13:31:10.575Z,3.85
2022-08-24T13:33:47.280Z,3.17
2022-08-24T13:36:33.873Z,3.97
2022-08-24T13:39:07.279Z,3.10
2022-08-24T13:41:46.162Z,2.35
2022-08-24T13:44:47.572Z,2.83
2022-08-24T13:47:22.523Z,5.60
2022-08-24T13:49:51.877Z,3.83
2022-08-24T13:52:45.159Z,4.28
2022-08-24T13:55:32.636Z,2.97
2022-08-24T13:58:24.628Z,3.20
2022-08-24T14:01:03.837Z,3.45
2022-08-24T14:03:45.183Z,2.42
2022-08-24T14:06:23.320Z,3.83
2022-08-24T14:09:09.558Z,1.80
2022-08-24T14:11:44.215Z,2.17
2022-08-24T14:14:26.585Z,3.65
2022-08-24T14:17:44.177Z,2.03
2022-08-24T14:20:41.333Z,2.55
2022-08-24T14:23:20.957Z,2.10
2022-08-24T14:25:49.668Z,1.90
2022-08-24T14:28:40.734Z,2.47
2022-08-24T14:31:29.522Z,2.33
2022-08-24T14:34:17.013Z,3.33
2022-08-24T14:37:18.691Z,5.43
2022-08-24T14:40:04.480Z,4.47
2022-08-24T14:42:39.423Z,2.17
2022-08-24T14:45:18.552Z,3.92
2022-08-24T14:48:05.042Z,3.05
2022-08-24T14:50:40.019Z,4.57
2022-08-24T14:53:27.142Z,2.17
2022-08-24T14:56:24.988Z,2.88
2022-08-24T14:59:32.198Z,2.50
2022-08-24T15:02:29.393Z,3.40
2022-08-24T15:05:09.141Z,3.15
2022-08-24T15:07:37.433Z,2.50
2022-08-24T15:10:14.933Z,3.63
2022-08-24T15:12:54.192Z,2.95
2022-08-24T15:15:27.857Z,5.10
2022-08-24T15:18:06.443Z,3.15
2022-08-24T15:20:58.536Z,4.88
2022-08-24T15:27:13.248Z,4.63
2022-08-24T15:29:55.007Z,2.53
2022-08-24T15:32:28.281Z,5.53
2022-08-24T15:34:58.462Z,4.53
2022-08-24T15:37:26.617Z,1.85
2022-08-24T15:39:54.163Z,4.50
2022-08-24T15:42:22.864Z,3.97
2022-08-24T15:44:51.783Z,2.03
2022-08-24T15:47:35.881Z,3.20
2022-08-24T15:50:08.274Z,4.97
2022-08-24T15:52:51.270Z,2.40
2022-08-24T15:55:24.977Z,3.38
2022-08-24T15:57:53.290Z,1.35
2022-08-24T16:00:44.611Z,2.00
2022-08-24T16:03:27.133Z,1.30
2022-08-24T16:06:16.020Z,2.00
2022-08-24T16:09:05.083Z,2.70
2022-08-24T16:11:38.728Z,5.53
2022-08-24T16:14:29.405Z,2.28
2022-08-24T16:16:59.755Z,2.22
2022-08-24T16:19:35.687Z,1.92
2022-08-24T16:22:13.089Z,2.28
2022-08-24T16:24:43.449Z,4.07
2022-08-24T16:27:14.805Z,5.85
2022-08-24T16:29:44.835Z,2.90
2022-08-24T16:32:32.006Z,1.17
2022-08-24T16:35:19.583Z,3.03
2022-08-24T16:37:47.786Z,5.05
2022-08-24T16:40:15.778Z,4.32
2022-08-24T16:42:43.546Z,1.80
2022-08-24T16:45:14.928Z,6.32
2022-08-24T16:47:42.607Z,2.13
2022-08-24T16:50:11.274Z,5.65
2022-08-24T16:52:39.830Z,5.28
2022-08-24T16:55:08.454Z,3.72
2022-08-24T16:57:37.530Z,3.03
2022-08-24T17:00:09.649Z,3.42
2022-08-24T17:02:37.868Z,3.30
2022-08-24T17:05:06.741Z,3.95
2022-08-24T17:07:34.907Z,5.90
2022-08-24T17:10:04.636Z,3.08
2022-08-24T17:12:32.416Z,4.22
2022-08-24T17:15:01.200Z,4.70
2022-08-24T17:17:29.341Z,6.70
2022-08-24T17:19:56.993Z,1.55
2022-08-24T17:22:26.589Z,2.15
2022-08-24T17:24:55.028Z,2.30
2022-08-24T17:27:33.168Z,8.48
2022-08-24T17:30:05.117Z,4.32
2022-08-24T17:32:33.962Z,3.35
2022-08-24T17:35:03.699Z,4.13
2022-08-24T17:37:32.786Z,3.88
2022-08-24T17:40:00.850Z,3.35
2022-08-24T17:42:49.658Z,5.22
2022-08-24T17:45:16.784Z,3.20
2022-08-24T17:47:45.019Z,3.70
2022-08-24T17:50:14.851Z,3.47
2022-08-24T17:52:44.134Z,4.15
2022-08-24T17:55:14.074Z,3.13
2022-08-24T17:57:45.707Z,4.70
2022-08-24T18:00:17.202Z,4.03
2022-08-24T18:02:45.798Z,3.47
2022-08-24T18:05:14.947Z,3.83
2022-08-24T18:07:54.892Z,5.13
2022-08-24T18:10:27.905Z,3.45
2022-08-24T18:12:58.146Z,4.20
2022-08-24T18:15:34.585Z,5.65
2022-08-24T18:18:08.864Z,5.22
2022-08-24T18:20:40.334Z,5.25
2022-08-24T18:23:11.354Z,3.95
2022-08-24T18:25:51.154Z,3.35
2022-08-24T18:28:22.184Z,4.15
2022-08-24T18:30:51.766Z,3.85
2022-08-24T18:33:19.404Z,3.13
2022-08-24T18:35:47.868Z,3.38
2022-08-24T18:38:15.367Z,5.78
2022-08-24T18:40:52.078Z,2.78
2022-08-24T18:43:24.071Z,4.95
2022-08-24T18:45:53.338Z,7.53
2022-08-24T18:48:22.087Z,1.67
2022-08-24T18:50:51.163Z,4.72
2022-08-24T18:53:19.800Z,5.05
2022-08-24T18:55:48.985Z,3.75
2022-08-24T18:58:17.053Z,7.47
2022-08-24T19:00:45.392Z,7.95
2022-08-24T19:03:17.612Z,9.00
2022-08-24T19:05:46.465Z,5.78
2022-08-24T19:08:13.970Z,5.32
2022-08-24T19:10:41.985Z,5.60
2022-08-24T19:13:15.849Z,7.90
2022-08-24T19:15:46.692Z,7.55
2022-08-24T19:18:16.485Z,7.43
2022-08-24T19:20:48.483Z,5.80
2022-08-24T19:23:30.097Z,6.10
2022-08-24T19:25:58.670Z,4.50
2022-08-24T19:28:27.110Z,11.75
2022-08-24T19:31:01.968Z,5.75
2022-08-24T19:33:35.845Z,5.78
2022-08-24T19:36:04.633Z,4.20
2022-08-24T19:38:32.364Z,6.22
2022-08-24T19:41:02.560Z,8.13
2022-08-24T19:44:00.108Z,3.95
2022-08-24T19:46:27.969Z,15.70
2022-08-24T19:48:56.248Z,4.88
2022-08-24T19:51:24.871Z,7.53
2022-08-24T19:53:53.112Z,11.07
2022-08-24T19:56:20.865Z,5.18
2022-08-24T19:58:57.631Z,5.82
2022-08-24T20:01:34.802Z,7.00
2022-08-24T20:04:06.206Z,5.57
2022-08-24T20:06:35.919Z,5.47
2022-08-24T20:09:04.920Z,3.63
2022-08-24T20:11:32.664Z,6.40
2022-08-24T20:14:02.792Z,5.57
2022-08-24T20:16:44.378Z,14.30
2022-08-24T20:19:12.489Z,7.05
2022-08-24T20:21:40.339Z,3.60
2022-08-24T20:24:08.868Z,2.78
2022-08-24T20:26:44.245Z,4.05
2022-08-24T20:29:12.753Z,5.72
2022-08-24T20:31:41.280Z,3.97
2022-08-24T20:34:09.087Z,3.75
2022-08-24T20:36:40.143Z,4.53
2022-08-24T20:39:10.884Z,10.80
2022-08-24T20:41:40.615Z,6.32
2022-08-24T20:44:09.320Z,6.45
2022-08-24T20:46:38.666Z,6.85
2022-08-24T20:49:07.810Z,10.57
2022-08-24T20:51:42.275Z,6.32
2022-08-24T20:54:11.594Z,6.40
2022-08-24T20:56:39.345Z,3.83
2022-08-24T20:59:09.815Z,4.22
2022-08-24T21:01:38.995Z,6.28
2022-08-24T21:04:06.974Z,4.30
2022-08-24T21:06:34.855Z,4.70
2022-08-24T21:09:04.808Z,4.32
2022-08-24T21:11:33.402Z,3.92
2022-08-24T21:14:05.632Z,5.75
2022-08-24T21:16:36.219Z,8.35
2022-08-24T21:19:04.371Z,6.03
2022-08-24T21:21:33.673Z,8.25
2022-08-24T21:24:01.992Z,5.05
2022-08-24T21:26:32.469Z,3.53
2022-08-24T21:29:00.329Z,5.13
2022-08-24T21:31:28.342Z,4.55
2022-08-24T21:34:15.376Z,6.60
2022-08-24T21:36:43.818Z,4.88
2022-08-24T21:39:11.898Z,5.00
2022-08-24T21:41:40.770Z,8.95
2022-08-24T21:44:08.514Z,6.95
2022-08-24T21:46:39.013Z,5.25
2022-08-24T21:49:07.877Z,4.28
2022-08-24T21:51:40.572Z,10.55
2022-08-24T21:54:09.022Z,7.95
2022-08-24T21:56:36.656Z,7.75
2022-08-24T21:59:04.587Z,5.75
2022-08-24T22:01:32.564Z,4.97
2022-08-24T22:04:01.476Z,4.93
2022-08-24T22:06:31.781Z,4.25
2022-08-24T22:09:00.465Z,5.40
2022-08-24T22:11:29.614Z,9.55
2022-08-24T22:13:58.021Z,5.07
2022-08-24T22:16:26.127Z,7.55
2022-08-24T22:18:54.091Z,8.23
2022-08-24T22:21:25.275Z,4.45
2022-08-24T22:23:52.727Z,5.13
2022-08-24T22:26:24.153Z,3.38
2022-08-24T22:28:52.006Z,8.80
2022-08-24T22:31:24.008Z,3.25
2022-08-24T22:33:52.049Z,4.35
2022-08-24T22:36:19.725Z,8.27
2022-08-24T22:38:48.073Z,6.28
2022-08-24T22:41:16.764Z,4.95
2022-08-24T22:44:02.963Z,4.95
2022-08-24T22:46:30.936Z,6.55
2022-08-24T22:49:00.547Z,3.60
2022-08-24T22:51:29.016Z,6.53
2022-08-24T22:53:57.342Z,7.53
2022-08-24T22:56:29.613Z,5.38
2022-08-24T22:58:58.465Z,3.63
2022-08-24T23:01:42.095Z,5.55
2022-08-24T23:04:14.521Z,4.28
2022-08-24T23:06:42.423Z,7.73
2022-08-24T23:09:11.062Z,2.65
2022-08-24T23:11:39.422Z,2.38
2022-08-24T23:14:09.106Z,3.65
2022-08-24T23:16:39.653Z,6.18
2022-08-24T23:19:26.820Z,6.93
2022-08-24T23:21:55.069Z,6.20
2022-08-24T23:24:23.674Z,4.22
2022-08-24T23:26:52.039Z,4.43
2022-08-24T23:29:20.637Z,5.47
2022-08-24T23:31:48.930Z,5.00
2022-08-24T23:34:17.029Z,5.85
2022-08-24T23:36:45.790Z,5.80
2022-08-24T23:39:13.890Z,3.55
2022-08-24T23:41:46.120Z,6.10
2022-08-24T23:44:20.976Z,4.20
2022-08-24T23:46:49.332Z,5.25
2022-08-24T23:49:19.750Z,7.43
2022-08-24T23:51:49.016Z,3.58
2022-08-24T23:54:18.486Z,6.20
2022-08-24T23:56:49.189Z,3.67
2022-08-24T23:59:21.734Z,4.25
